# Tabular Observed and Forecast Hydrograph Information
#
# Location: Klamath River - Keno (KEOO3)
#
# File Generation Time: 08/30/2026 at 07:13 AM PDT
# Data Interval: 1 Hour
#
# Most Recent Date & Time of Maximum Observed: 08/28/2026 at 02:00 PM PDT
# Maximum Observed Stage: 6.68 Feet
# Maximum Observed Flow: 1893 cfs
#
# Earliest Date & Time of Maximum Forecast: 08/30/2026 at 08:00 AM PDT
# Maximum Forecast Stage: 5.77 Feet
# Maximum Forecast Flow: 1303 cfs
#
# OBSERVED
#
# Date & Time (Local) Stage (Feet) Flow (cfs) Trend Observed Status
# ---------------------------------------------------------------------------------
08/25/2026 07 AM PDT 4.53 663 Not Applicable
08/25/2026 08 AM PDT 4.53 663 0 Not Applicable
08/25/2026 09 AM PDT 4.60 693 + Not Applicable
08/25/2026 10 AM PDT 4.60 693 0 Not Applicable
08/25/2026 11 AM PDT 4.61 698 + Not Applicable
08/25/2026 12 PM PDT 4.60 693 - Not Applicable
08/25/2026 01 PM PDT 4.60 693 0 Not Applicable
08/25/2026 02 PM PDT 4.61 698 + Not Applicable
08/25/2026 03 PM PDT 4.60 693 - Not Applicable
08/25/2026 04 PM PDT 4.58 685 - Not Applicable
08/25/2026 05 PM PDT 4.58 685 0 Not Applicable
08/25/2026 06 PM PDT 4.59 689 + Not Applicable
08/25/2026 07 PM PDT 4.59 689 0 Not Applicable
08/25/2026 08 PM PDT 4.58 685 - Not Applicable
08/25/2026 09 PM PDT 4.59 689 + Not Applicable
08/25/2026 10 PM PDT 4.59 689 0 Not Applicable
08/25/2026 11 PM PDT 4.58 685 - Not Applicable
08/26/2026 12 AM PDT 4.58 685 0 Not Applicable
08/26/2026 01 AM PDT 4.57 680 - Not Applicable
08/26/2026 02 AM PDT 4.58 685 + Not Applicable
08/26/2026 03 AM PDT 4.58 685 0 Not Applicable
08/26/2026 04 AM PDT 4.58 685 0 Not Applicable
08/26/2026 05 AM PDT 4.58 685 0 Not Applicable
08/26/2026 06 AM PDT 4.57 680 - Not Applicable
08/26/2026 07 AM PDT 4.57 680 0 Not Applicable
08/26/2026 08 AM PDT 4.56 676 - Not Applicable
08/26/2026 09 AM PDT 4.58 685 + Not Applicable
08/26/2026 10 AM PDT 4.57 680 - Not Applicable
08/26/2026 11 AM PDT 4.56 676 - Not Applicable
08/26/2026 12 PM PDT 4.56 676 0 Not Applicable
08/26/2026 01 PM PDT 4.56 676 0 Not Applicable
08/26/2026 02 PM PDT 4.57 680 + Not Applicable
08/26/2026 03 PM PDT 4.57 680 0 Not Applicable
08/26/2026 04 PM PDT 4.56 676 - Not Applicable
08/26/2026 05 PM PDT 4.57 680 + Not Applicable
08/26/2026 06 PM PDT 4.57 680 0 Not Applicable
08/26/2026 07 PM PDT 4.57 680 0 Not Applicable
08/26/2026 08 PM PDT 4.57 680 0 Not Applicable
08/26/2026 09 PM PDT 4.57 680 0 Not Applicable
08/26/2026 10 PM PDT 4.56 676 - Not Applicable
08/26/2026 11 PM PDT 4.56 676 0 Not Applicable
08/27/2026 12 AM PDT 4.57 680 + Not Applicable
08/27/2026 01 AM PDT 4.56 676 - Not Applicable
08/27/2026 02 AM PDT 4.56 676 0 Not Applicable
08/27/2026 03 AM PDT 4.57 680 + Not Applicable
08/27/2026 04 AM PDT 4.56 676 - Not Applicable
08/27/2026 05 AM PDT 4.57 680 + Not Applicable
08/27/2026 06 AM PDT 4.57 680 0 Not Applicable
08/27/2026 07 AM PDT 4.56 676 - Not Applicable
08/27/2026 08 AM PDT 4.57 680 + Not Applicable
08/27/2026 09 AM PDT 4.57 680 0 Not Applicable
08/27/2026 10 AM PDT 4.57 680 0 Not Applicable
08/27/2026 11 AM PDT 4.57 680 0 Not Applicable
08/27/2026 12 PM PDT 4.56 676 - Not Applicable
08/27/2026 01 PM PDT 4.56 676 0 Not Applicable
08/27/2026 02 PM PDT 4.56 676 0 Not Applicable
08/27/2026 03 PM PDT 4.57 680 + Not Applicable
08/27/2026 04 PM PDT 4.57 680 0 Not Applicable
08/27/2026 05 PM PDT 4.56 676 - Not Applicable
08/27/2026 06 PM PDT 4.56 676 0 Not Applicable
08/27/2026 07 PM PDT 4.57 680 + Not Applicable
08/27/2026 08 PM PDT 4.57 680 0 Not Applicable
08/27/2026 09 PM PDT 4.57 680 0 Not Applicable
08/27/2026 10 PM PDT 4.57 680 0 Not Applicable
08/27/2026 11 PM PDT 4.57 680 0 Not Applicable
08/28/2026 12 AM PDT 4.58 685 + Not Applicable
08/28/2026 01 AM PDT 4.57 680 - Not Applicable
08/28/2026 02 AM PDT 4.58 685 + Not Applicable
08/28/2026 03 AM PDT 4.57 680 - Not Applicable
08/28/2026 04 AM PDT 5.67 1241 + Not Applicable
08/28/2026 05 AM PDT 6.60 1838 + Not Applicable
08/28/2026 06 AM PDT 6.63 1858 + Not Applicable
08/28/2026 07 AM PDT 6.49 1763 - Not Applicable
08/28/2026 08 AM PDT 6.48 1757 - Not Applicable
08/28/2026 09 AM PDT 6.61 1844 + Not Applicable
08/28/2026 10 AM PDT 6.66 1879 + Not Applicable
08/28/2026 11 AM PDT 6.63 1858 - Not Applicable
08/28/2026 12 PM PDT 6.62 1851 - Not Applicable
08/28/2026 01 PM PDT 6.62 1851 0 Not Applicable
08/28/2026 02 PM PDT 6.68 1893 + Not Applicable
08/28/2026 03 PM PDT 6.67 1886 - Not Applicable
08/28/2026 04 PM PDT 6.63 1858 - Not Applicable
08/28/2026 05 PM PDT 6.63 1858 0 Not Applicable
08/28/2026 06 PM PDT 6.64 1865 + Not Applicable
08/28/2026 07 PM PDT 6.58 1824 - Not Applicable
08/28/2026 08 PM PDT 6.52 1783 - Not Applicable
08/28/2026 09 PM PDT 6.51 1777 - Not Applicable
08/28/2026 10 PM PDT 6.52 1783 + Not Applicable
08/28/2026 11 PM PDT 6.49 1763 - Not Applicable
08/29/2026 12 AM PDT 6.51 1777 + Not Applicable
08/29/2026 01 AM PDT 6.50 1770 - Not Applicable
08/29/2026 02 AM PDT 6.51 1777 + Not Applicable
08/29/2026 03 AM PDT 6.51 1777 0 Not Applicable
08/29/2026 04 AM PDT 6.48 1757 - Not Applicable
08/29/2026 05 AM PDT 6.46 1743 - Not Applicable
08/29/2026 06 AM PDT 6.49 1763 + Not Applicable
08/29/2026 07 AM PDT 6.43 1723 - Not Applicable
08/29/2026 08 AM PDT 6.37 1684 - Not Applicable
08/29/2026 09 AM PDT 6.36 1677 - Not Applicable
08/29/2026 10 AM PDT 6.39 1697 + Not Applicable
08/29/2026 11 AM PDT 6.38 1690 - Not Applicable
08/29/2026 12 PM PDT 6.38 1690 0 Not Applicable
08/29/2026 01 PM PDT 6.17 1555 - Not Applicable
08/29/2026 02 PM PDT 6.13 1530 - Not Applicable
08/29/2026 03 PM PDT 6.16 1549 + Not Applicable
08/29/2026 04 PM PDT 6.14 1537 - Not Applicable
08/29/2026 05 PM PDT 6.15 1543 + Not Applicable
08/29/2026 06 PM PDT 6.15 1543 0 Not Applicable
08/29/2026 07 PM PDT 6.05 1481 - Not Applicable
08/29/2026 08 PM PDT 6.04 1474 - Not Applicable
08/29/2026 09 PM PDT 6.04 1474 0 Not Applicable
08/29/2026 10 PM PDT 6.04 1474 0 Not Applicable
08/29/2026 11 PM PDT 6.03 1468 - Not Applicable
08/30/2026 12 AM PDT 6.01 1456 - Not Applicable
08/30/2026 01 AM PDT 5.93 1404 - Not Applicable
08/30/2026 02 AM PDT 5.94 1411 + Not Applicable
08/30/2026 03 AM PDT 5.94 1411 0 Not Applicable
08/30/2026 04 AM PDT 5.93 1404 - Not Applicable
08/30/2026 05 AM PDT 5.94 1411 + Not Applicable
08/30/2026 06 AM PDT 5.89 1379 - Not Applicable
08/30/2026 07 AM PDT 5.83 1340 - Not Applicable
#
# FORECAST
#
# Date & Time (Local) Stage (Feet) Flow (cfs) Trend Forecast Status
# ---------------------------------------------------------------------------------
08/30/2026 08 AM PDT 5.77 1303 Not Applicable
08/30/2026 09 AM PDT 5.73 1278 - Not Applicable
08/30/2026 10 AM PDT 5.69 1253 - Not Applicable
08/30/2026 11 AM PDT 5.66 1235 - Not Applicable
08/30/2026 12 PM PDT 5.64 1223 - Not Applicable
08/30/2026 01 PM PDT 5.62 1211 - Not Applicable
08/30/2026 02 PM PDT 5.61 1205 - Not Applicable
08/30/2026 03 PM PDT 5.60 1199 - Not Applicable
08/30/2026 04 PM PDT 5.59 1193 - Not Applicable
08/30/2026 05 PM PDT 5.59 1193 0 Not Applicable
08/30/2026 06 PM PDT 5.59 1193 0 Not Applicable
08/30/2026 07 PM PDT 5.59 1193 0 Not Applicable
08/30/2026 08 PM PDT 5.60 1199 + Not Applicable
08/30/2026 09 PM PDT 5.60 1199 0 Not Applicable
08/30/2026 10 PM PDT 5.60 1199 0 Not Applicable
08/30/2026 11 PM PDT 5.60 1199 0 Not Applicable
08/31/2026 12 AM PDT 5.60 1199 0 Not Applicable
08/31/2026 01 AM PDT 5.60 1199 0 Not Applicable
08/31/2026 02 AM PDT 5.60 1199 0 Not Applicable
08/31/2026 03 AM PDT 5.60 1199 0 Not Applicable
08/31/2026 04 AM PDT 5.60 1199 0 Not Applicable
08/31/2026 05 AM PDT 5.60 1199 0 Not Applicable
08/31/2026 06 AM PDT 5.60 1199 0 Not Applicable
08/31/2026 07 AM PDT 5.60 1199 0 Not Applicable
08/31/2026 08 AM PDT 5.60 1199 0 Not Applicable
08/31/2026 09 AM PDT 5.60 1199 0 Not Applicable
08/31/2026 10 AM PDT 5.60 1199 0 Not Applicable
08/31/2026 11 AM PDT 5.60 1199 0 Not Applicable
08/31/2026 12 PM PDT 5.60 1199 0 Not Applicable
08/31/2026 01 PM PDT 5.60 1199 0 Not Applicable
08/31/2026 02 PM PDT 5.60 1199 0 Not Applicable
08/31/2026 03 PM PDT 5.60 1199 0 Not Applicable
08/31/2026 04 PM PDT 5.60 1199 0 Not Applicable
08/31/2026 05 PM PDT 5.60 1199 0 Not Applicable
08/31/2026 06 PM PDT 5.61 1205 + Not Applicable
08/31/2026 07 PM PDT 5.61 1205 0 Not Applicable
08/31/2026 08 PM PDT 5.62 1211 + Not Applicable
08/31/2026 09 PM PDT 5.62 1211 0 Not Applicable
08/31/2026 10 PM PDT 5.62 1211 0 Not Applicable
08/31/2026 11 PM PDT 5.62 1211 0 Not Applicable
09/01/2026 12 AM PDT 5.62 1211 0 Not Applicable
09/01/2026 01 AM PDT 5.62 1211 0 Not Applicable
09/01/2026 02 AM PDT 5.62 1211 0 Not Applicable
09/01/2026 03 AM PDT 5.62 1211 0 Not Applicable
09/01/2026 04 AM PDT 5.62 1211 0 Not Applicable
09/01/2026 05 AM PDT 5.62 1211 0 Not Applicable
09/01/2026 06 AM PDT 5.62 1211 0 Not Applicable
09/01/2026 07 AM PDT 5.62 1211 0 Not Applicable
09/01/2026 08 AM PDT 5.62 1211 0 Not Applicable
09/01/2026 09 AM PDT 5.62 1211 0 Not Applicable
09/01/2026 10 AM PDT 5.62 1211 0 Not Applicable
09/01/2026 11 AM PDT 5.62 1211 0 Not Applicable
09/01/2026 12 PM PDT 5.62 1211 0 Not Applicable
09/01/2026 01 PM PDT 5.62 1211 0 Not Applicable
09/01/2026 02 PM PDT 5.62 1211 0 Not Applicable
09/01/2026 03 PM PDT 5.62 1211 0 Not Applicable
09/01/2026 04 PM PDT 5.62 1211 0 Not Applicable
09/01/2026 05 PM PDT 5.62 1211 0 Not Applicable
09/01/2026 06 PM PDT 5.63 1217 + Not Applicable
09/01/2026 07 PM PDT 5.63 1217 0 Not Applicable
09/01/2026 08 PM PDT 5.64 1223 + Not Applicable
09/01/2026 09 PM PDT 5.64 1223 0 Not Applicable
09/01/2026 10 PM PDT 5.64 1223 0 Not Applicable
09/01/2026 11 PM PDT 5.64 1223 0 Not Applicable
09/02/2026 12 AM PDT 5.64 1223 0 Not Applicable
09/02/2026 01 AM PDT 5.65 1229 + Not Applicable
09/02/2026 02 AM PDT 5.65 1229 0 Not Applicable
09/02/2026 03 AM PDT 5.65 1229 0 Not Applicable
09/02/2026 04 AM PDT 5.65 1229 0 Not Applicable
09/02/2026 05 AM PDT 5.66 1235 + Not Applicable
09/02/2026 06 AM PDT 5.66 1235 0 Not Applicable
09/02/2026 07 AM PDT 5.66 1235 0 Not Applicable
09/02/2026 08 AM PDT 5.66 1235 0 Not Applicable
09/02/2026 09 AM PDT 5.66 1235 0 Not Applicable
09/02/2026 10 AM PDT 5.66 1235 0 Not Applicable
09/02/2026 11 AM PDT 5.65 1229 - Not Applicable
09/02/2026 12 PM PDT 5.65 1229 0 Not Applicable
09/02/2026 01 PM PDT 5.65 1229 0 Not Applicable
09/02/2026 02 PM PDT 5.65 1229 0 Not Applicable
09/02/2026 03 PM PDT 5.65 1229 0 Not Applicable
09/02/2026 04 PM PDT 5.65 1229 0 Not Applicable
09/02/2026 05 PM PDT 5.65 1229 0 Not Applicable
09/02/2026 06 PM PDT 5.66 1235 + Not Applicable
09/02/2026 07 PM PDT 5.66 1235 0 Not Applicable
09/02/2026 08 PM PDT 5.67 1241 + Not Applicable
09/02/2026 09 PM PDT 5.67 1241 0 Not Applicable
09/02/2026 10 PM PDT 5.67 1241 0 Not Applicable
09/02/2026 11 PM PDT 5.67 1241 0 Not Applicable
09/03/2026 12 AM PDT 5.68 1247 + Not Applicable
09/03/2026 01 AM PDT 5.68 1247 0 Not Applicable
09/03/2026 02 AM PDT 5.68 1247 0 Not Applicable
09/03/2026 03 AM PDT 5.68 1247 0 Not Applicable
09/03/2026 04 AM PDT 5.68 1247 0 Not Applicable
09/03/2026 05 AM PDT 5.69 1253 + Not Applicable
09/03/2026 06 AM PDT 5.69 1253 0 Not Applicable
09/03/2026 07 AM PDT 5.69 1253 0 Not Applicable
09/03/2026 08 AM PDT 5.70 1259 + Not Applicable
09/03/2026 09 AM PDT 5.70 1259 0 Not Applicable
09/03/2026 10 AM PDT 5.70 1259 0 Not Applicable
09/03/2026 11 AM PDT 5.71 1266 + Not Applicable
09/03/2026 12 PM PDT 5.71 1266 0 Not Applicable
09/03/2026 01 PM PDT 5.71 1266 0 Not Applicable
09/03/2026 02 PM PDT 5.71 1266 0 Not Applicable
09/03/2026 03 PM PDT 5.71 1266 0 Not Applicable
09/03/2026 04 PM PDT 5.71 1266 0 Not Applicable
09/03/2026 05 PM PDT 5.71 1266 0 Not Applicable
09/03/2026 06 PM PDT 5.71 1266 0 Not Applicable
09/03/2026 07 PM PDT 5.72 1272 + Not Applicable
09/03/2026 08 PM PDT 5.72 1272 0 Not Applicable
09/03/2026 09 PM PDT 5.72 1272 0 Not Applicable
09/03/2026 10 PM PDT 5.72 1272 0 Not Applicable
09/03/2026 11 PM PDT 5.72 1272 0 Not Applicable
09/04/2026 12 AM PDT 5.71 1266 - Not Applicable
09/04/2026 01 AM PDT 5.71 1266 0 Not Applicable
09/04/2026 02 AM PDT 5.71 1266 0 Not Applicable
09/04/2026 03 AM PDT 5.71 1266 0 Not Applicable
09/04/2026 04 AM PDT 5.71 1266 0 Not Applicable
09/04/2026 05 AM PDT 5.71 1266 0 Not Applicable
#
# NOTE 1: Stages are rounded to the nearest hundredth (.01) of a foot.
# NOTE 2: Flows are rounded to the nearest (1) cfs.
# NOTE 3: Trends are determined using hourly change in unrounded stage and flow.
# NOTE 4: Maximum Values are determined using unrounded stage and flow.
|